Time,TemperatureF,DewpointF,PressureIn,WindDirection,WindDirectionDegrees,WindSpeedMPH,WindSpeedGustMPH,Humidity,HourlyPrecipIn,Conditions,Clouds,dailyrainin,SoftwareType,DateUTC
2013-08-18 00:00:00,69.0,69.0,30.11,NW,309,0.0,0.0,100,0.00,,,0.15,Wunderground v.1.15,2013-08-18 04:00:00,
2013-08-18 00:05:00,68.9,68.9,30.11,NW,309,0.0,0.0,100,0.00,,,0.00,Wunderground v.1.15,2013-08-18 04:05:00,
2013-08-18 00:10:00,68.9,68.9,30.11,NW,309,0.0,0.0,100,0.00,,,0.00,Wunderground v.1.15,2013-08-18 04:10:00,
2013-08-18 00:15:00,68.9,68.9,30.11,NW,309,0.0,0.0,100,0.00,,,0.01,Wunderground v.1.15,2013-08-18 04:15:00,
2013-08-18 00:20:00,68.9,68.9,30.11,NW,309,0.0,0.0,100,0.00,,,0.01,Wunderground v.1.15,2013-08-18 04:20:00,
2013-08-18 00:25:00,69.0,69.0,30.11,NW,309,0.0,0.0,100,0.00,,,0.01,Wunderground v.1.15,2013-08-18 04:25:00,
2013-08-18 00:30:00,69.0,69.0,30.11,NW,309,0.0,0.0,100,0.00,,,0.01,Wunderground v.1.15,2013-08-18 04:30:00,
2013-08-18 00:35:00,69.0,69.0,30.11,NW,309,0.0,0.0,100,0.00,,,0.01,Wunderground v.1.15,2013-08-18 04:35:00,
2013-08-18 00:40:00,69.0,69.0,30.10,NW,309,0.0,0.0,100,0.00,,,0.01,Wunderground v.1.15,2013-08-18 04:40:00,
2013-08-18 00:45:00,69.0,69.0,30.10,NW,309,0.0,0.0,100,0.00,,,0.01,Wunderground v.1.15,2013-08-18 04:45:00,
2013-08-18 00:50:00,69.0,69.0,30.10,NW,309,0.0,0.0,100,0.00,,,0.01,Wunderground v.1.15,2013-08-18 04:50:00,
2013-08-18 01:00:00,69.0,69.0,30.10,NW,309,0.0,0.0,100,0.00,,,0.01,Wunderground v.1.15,2013-08-18 05:00:00,
2013-08-18 01:05:00,69.0,69.0,30.10,NW,309,0.0,0.0,100,0.00,,,0.01,Wunderground v.1.15,2013-08-18 05:05:00,
2013-08-18 01:10:00,69.0,69.0,30.10,NW,309,0.0,2.0,100,0.00,,,0.01,Wunderground v.1.15,2013-08-18 05:10:00,
2013-08-18 01:20:00,69.0,69.0,30.09,NW,309,0.0,0.0,100,0.00,,,0.01,Wunderground v.1.15,2013-08-18 05:20:00,
2013-08-18 01:25:00,69.0,69.0,30.09,NW,309,0.0,1.0,100,0.00,,,0.01,Wunderground v.1.15,2013-08-18 05:25:00,
2013-08-18 01:35:00,69.0,69.0,30.09,NW,309,0.0,0.0,100,0.00,,,0.01,Wunderground v.1.15,2013-08-18 05:35:00,
2013-08-18 01:40:00,69.0,69.0,30.09,NW,309,0.0,0.0,100,0.00,,,0.01,Wunderground v.1.15,2013-08-18 05:40:00,
2013-08-18 01:45:00,69.0,69.0,30.09,NW,309,0.0,0.0,100,0.00,,,0.01,Wunderground v.1.15,2013-08-18 05:45:00,
2013-08-18 01:55:00,69.0,69.0,30.09,NW,309,0.0,0.0,100,0.00,,,0.01,Wunderground v.1.15,2013-08-18 05:55:00,
2013-08-18 02:00:00,69.0,69.0,30.09,NW,309,1.0,1.0,100,0.00,,,0.01,Wunderground v.1.15,2013-08-18 06:00:00,
2013-08-18 02:05:00,69.0,69.0,30.09,NW,309,1.0,1.0,100,0.00,,,0.01,Wunderground v.1.15,2013-08-18 06:05:00,
2013-08-18 02:15:00,69.0,69.0,30.09,NW,309,0.0,0.0,100,0.00,,,0.01,Wunderground v.1.15,2013-08-18 06:15:00,
2013-08-18 02:20:00,69.0,69.0,30.08,NW,309,0.0,0.0,100,0.00,,,0.01,Wunderground v.1.15,2013-08-18 06:20:00,
2013-08-18 02:25:00,69.0,69.0,30.09,NW,309,0.0,0.0,100,0.00,,,0.01,Wunderground v.1.15,2013-08-18 06:25:00,
2013-08-18 02:35:00,69.0,69.0,30.08,NW,309,0.0,0.0,100,0.00,,,0.01,Wunderground v.1.15,2013-08-18 06:35:00,
2013-08-18 02:40:00,69.0,69.0,30.08,NW,309,0.0,0.0,100,0.00,,,0.01,Wunderground v.1.15,2013-08-18 06:40:00,
2013-08-18 02:45:00,69.0,69.0,30.09,NW,309,0.0,0.0,100,0.00,,,0.01,Wunderground v.1.15,2013-08-18 06:45:00,
2013-08-18 02:55:00,69.0,69.0,30.08,NW,309,0.0,0.0,100,0.00,,,0.01,Wunderground v.1.15,2013-08-18 06:55:00,
2013-08-18 03:00:00,69.0,69.0,30.08,NW,309,0.0,0.0,100,0.00,,,0.01,Wunderground v.1.15,2013-08-18 07:00:00,
2013-08-18 03:05:00,69.0,69.0,30.08,NW,309,0.0,0.0,100,0.00,,,0.01,Wunderground v.1.15,2013-08-18 07:05:00,
2013-08-18 03:15:00,69.0,69.0,30.08,NW,309,0.0,0.0,100,0.00,,,0.02,Wunderground v.1.15,2013-08-18 07:15:00,
2013-08-18 03:20:00,69.0,69.0,30.08,NW,309,0.0,0.0,100,0.00,,,0.02,Wunderground v.1.15,2013-08-18 07:20:00,
2013-08-18 03:25:00,69.0,69.0,30.08,NW,309,0.0,0.0,100,0.00,,,0.02,Wunderground v.1.15,2013-08-18 07:25:00,
2013-08-18 03:35:00,69.0,69.0,30.08,NW,309,0.0,0.0,100,0.00,,,0.02,Wunderground v.1.15,2013-08-18 07:35:00,
2013-08-18 03:40:00,69.0,69.0,30.08,NW,309,0.0,0.0,100,0.00,,,0.02,Wunderground v.1.15,2013-08-18 07:40:00,
2013-08-18 03:45:00,69.0,69.0,30.08,NW,309,0.0,0.0,100,0.00,,,0.02,Wunderground v.1.15,2013-08-18 07:45:00,
2013-08-18 03:55:00,69.0,69.0,30.08,NW,309,0.0,0.0,100,0.00,,,0.02,Wunderground v.1.15,2013-08-18 07:55:00,
2013-08-18 04:00:00,69.0,69.0,30.08,NW,309,0.0,0.0,100,0.00,,,0.02,Wunderground v.1.15,2013-08-18 08:00:00,
2013-08-18 04:05:00,69.1,69.1,30.08,NW,309,0.0,0.0,100,0.00,,,0.02,Wunderground v.1.15,2013-08-18 08:05:00,
2013-08-18 04:15:00,69.1,69.1,30.08,NW,309,0.0,0.0,100,0.00,,,0.02,Wunderground v.1.15,2013-08-18 08:15:00,
2013-08-18 04:20:00,69.1,69.1,30.08,NW,309,0.0,0.0,100,0.00,,,0.02,Wunderground v.1.15,2013-08-18 08:20:00,
2013-08-18 04:25:00,69.1,69.1,30.08,NW,309,0.0,0.0,100,0.00,,,0.02,Wunderground v.1.15,2013-08-18 08:25:00,
2013-08-18 04:35:00,69.1,69.1,30.08,NW,309,0.0,0.0,100,0.00,,,0.02,Wunderground v.1.15,2013-08-18 08:35:00,
2013-08-18 04:40:00,69.1,69.1,30.08,NW,309,0.0,0.0,100,0.00,,,0.02,Wunderground v.1.15,2013-08-18 08:40:00,
2013-08-18 04:50:00,69.1,69.1,30.08,NW,309,0.0,0.0,100,0.00,,,0.02,Wunderground v.1.15,2013-08-18 08:50:00,
2013-08-18 04:55:00,69.2,69.2,30.08,NW,309,0.0,0.0,100,0.00,,,0.02,Wunderground v.1.15,2013-08-18 08:55:00,
2013-08-18 05:00:00,69.2,69.2,30.08,NW,309,0.0,0.0,100,0.00,,,0.02,Wunderground v.1.15,2013-08-18 09:00:00,
2013-08-18 05:05:00,69.2,69.2,30.08,NW,309,0.0,0.0,100,0.00,,,0.02,Wunderground v.1.15,2013-08-18 09:05:00,
2013-08-18 05:15:00,69.3,69.3,30.08,NW,309,0.0,0.0,100,0.00,,,0.03,Wunderground v.1.15,2013-08-18 09:15:00,
2013-08-18 05:20:00,69.3,69.3,30.09,NW,309,0.0,0.0,100,0.00,,,0.03,Wunderground v.1.15,2013-08-18 09:20:00,
2013-08-18 05:25:00,69.3,69.3,30.08,NW,309,0.0,0.0,100,0.00,,,0.03,Wunderground v.1.15,2013-08-18 09:25:00,
2013-08-18 05:35:00,69.3,69.3,30.08,NW,309,0.0,0.0,100,0.00,,,0.03,Wunderground v.1.15,2013-08-18 09:35:00,
2013-08-18 05:40:00,69.3,69.3,30.08,NW,309,0.0,0.0,100,0.00,,,0.03,Wunderground v.1.15,2013-08-18 09:40:00,
2013-08-18 05:50:00,69.2,69.2,30.09,NW,309,0.0,0.0,100,0.00,,,0.04,Wunderground v.1.15,2013-08-18 09:50:00,
2013-08-18 05:55:00,69.3,69.3,30.08,NW,309,0.0,0.0,100,0.00,,,0.04,Wunderground v.1.15,2013-08-18 09:55:00,
2013-08-18 06:00:00,69.3,69.3,30.08,NW,309,0.0,0.0,100,0.00,,,0.04,Wunderground v.1.15,2013-08-18 10:00:00,
2013-08-18 06:05:00,69.4,69.4,30.09,NW,309,0.0,0.0,100,0.00,,,0.04,Wunderground v.1.15,2013-08-18 10:05:00,
2013-08-18 06:15:00,69.5,69.5,30.09,NW,309,0.0,0.0,100,0.00,,,0.04,Wunderground v.1.15,2013-08-18 10:15:00,
2013-08-18 06:20:00,69.5,69.5,30.09,NW,309,0.0,0.0,100,0.00,,,0.04,Wunderground v.1.15,2013-08-18 10:20:00,
2013-08-18 06:25:00,69.5,69.5,30.09,NW,309,0.0,0.0,100,0.00,,,0.04,Wunderground v.1.15,2013-08-18 10:25:00,
2013-08-18 06:35:00,69.5,69.5,30.10,NW,309,0.0,0.0,100,0.00,,,0.04,Wunderground v.1.15,2013-08-18 10:35:00,
2013-08-18 06:40:00,69.5,69.5,30.10,NW,309,0.0,0.0,100,0.00,,,0.04,Wunderground v.1.15,2013-08-18 10:40:00,
2013-08-18 06:45:00,69.5,69.5,30.10,NW,309,0.0,0.0,100,0.00,,,0.04,Wunderground v.1.15,2013-08-18 10:45:00,
2013-08-18 06:55:00,69.5,69.5,30.11,NW,309,0.0,0.0,100,0.00,,,0.04,Wunderground v.1.15,2013-08-18 10:55:00,
2013-08-18 07:00:00,69.5,69.5,30.11,NW,309,0.0,0.0,100,0.00,,,0.04,Wunderground v.1.15,2013-08-18 11:00:00,
2013-08-18 07:10:00,69.4,69.4,30.11,NW,309,0.0,0.0,100,0.00,,,0.04,Wunderground v.1.15,2013-08-18 11:10:00,
2013-08-18 07:15:00,69.4,69.4,30.11,NW,309,0.0,0.0,100,0.00,,,0.04,Wunderground v.1.15,2013-08-18 11:15:00,
2013-08-18 07:20:00,69.4,69.4,30.11,NW,309,0.0,0.0,100,0.00,,,0.04,Wunderground v.1.15,2013-08-18 11:20:00,
2013-08-18 07:25:00,69.4,69.4,30.12,NW,309,0.0,0.0,100,0.00,,,0.04,Wunderground v.1.15,2013-08-18 11:25:00,
2013-08-18 07:35:00,69.7,69.7,30.11,NW,309,0.0,0.0,100,0.00,,,0.04,Wunderground v.1.15,2013-08-18 11:35:00,
2013-08-18 07:40:00,69.9,69.9,30.11,NW,309,0.0,0.0,100,0.00,,,0.04,Wunderground v.1.15,2013-08-18 11:40:00,
2013-08-18 07:50:00,70.1,70.1,30.11,NW,309,0.0,0.0,100,0.00,,,0.04,Wunderground v.1.15,2013-08-18 11:50:00,
2013-08-18 07:55:00,70.1,70.1,30.12,NNE,32,0.0,0.0,100,0.00,,,0.04,Wunderground v.1.15,2013-08-18 11:55:00,
2013-08-18 08:00:00,70.0,70.0,30.12,East,84,0.0,1.0,100,0.00,,,0.04,Wunderground v.1.15,2013-08-18 12:00:00,
2013-08-18 08:10:00,70.0,70.0,30.13,East,84,0.0,0.0,100,0.00,,,0.04,Wunderground v.1.15,2013-08-18 12:10:00,
2013-08-18 08:15:00,70.0,70.0,30.13,East,84,0.0,0.0,100,0.00,,,0.04,Wunderground v.1.15,2013-08-18 12:15:00,
2013-08-18 08:20:00,70.1,70.1,30.13,East,84,0.0,0.0,100,0.00,,,0.04,Wunderground v.1.15,2013-08-18 12:20:00,
2013-08-18 08:30:00,70.2,70.2,30.13,East,84,0.0,0.0,100,0.00,,,0.04,Wunderground v.1.15,2013-08-18 12:30:00,
2013-08-18 08:35:00,70.3,70.3,30.13,East,84,0.0,0.0,100,0.00,,,0.04,Wunderground v.1.15,2013-08-18 12:35:00,
2013-08-18 08:40:00,70.2,70.2,30.13,East,84,0.0,0.0,100,0.00,,,0.04,Wunderground v.1.15,2013-08-18 12:40:00,
2013-08-18 08:50:00,70.2,70.2,30.13,ESE,105,0.0,0.0,100,0.00,,,0.04,Wunderground v.1.15,2013-08-18 12:50:00,
2013-08-18 08:55:00,70.1,70.1,30.13,ESE,109,0.0,0.0,100,0.00,,,0.04,Wunderground v.1.15,2013-08-18 12:55:00,
2013-08-18 09:05:00,70.1,70.1,30.13,NNE,17,0.0,0.0,100,0.00,,,0.04,Wunderground v.1.15,2013-08-18 13:05:00,
2013-08-18 09:10:00,70.1,70.1,30.13,NNE,17,0.0,0.0,100,0.00,,,0.04,Wunderground v.1.15,2013-08-18 13:10:00,
2013-08-18 09:15:00,70.1,70.1,30.13,NNE,32,0.0,1.0,100,0.00,,,0.04,Wunderground v.1.15,2013-08-18 13:15:00,
2013-08-18 09:20:00,70.2,70.2,30.13,NNE,22,0.0,0.0,100,0.00,,,0.04,Wunderground v.1.15,2013-08-18 13:20:00,
2013-08-18 09:30:00,70.2,70.2,30.13,NNE,17,1.0,1.0,100,0.00,,,0.04,Wunderground v.1.15,2013-08-18 13:30:00,
2013-08-18 09:35:00,70.2,70.2,30.14,East,83,1.0,1.0,100,0.00,,,0.04,Wunderground v.1.15,2013-08-18 13:35:00,
2013-08-18 09:45:00,70.3,70.3,30.14,East,82,1.0,1.0,100,0.00,,,0.04,Wunderground v.1.15,2013-08-18 13:45:00,
2013-08-18 09:50:00,70.5,70.2,30.14,NE,55,1.0,2.0,99,0.00,,,0.04,Wunderground v.1.15,2013-08-18 13:50:00,
2013-08-18 09:55:00,70.7,70.4,30.14,NE,55,1.0,2.0,99,0.00,,,0.04,Wunderground v.1.15,2013-08-18 13:55:00,
2013-08-18 10:00:00,70.8,70.5,30.14,NE,55,1.0,1.0,99,0.00,,,0.04,Wunderground v.1.15,2013-08-18 14:00:00,
2013-08-18 10:10:00,71.0,70.7,30.15,NE,55,0.0,0.0,99,0.00,,,0.04,Wunderground v.1.15,2013-08-18 14:10:00,
2013-08-18 10:15:00,71.1,70.8,30.14,NE,55,0.0,1.0,99,0.00,,,0.04,Wunderground v.1.15,2013-08-18 14:15:00,
2013-08-18 10:25:00,71.2,70.6,30.15,West,277,1.0,1.0,98,0.00,,,0.04,Wunderground v.1.15,2013-08-18 14:25:00,
2013-08-18 10:30:00,71.4,70.8,30.15,West,277,0.0,0.0,98,0.00,,,0.04,Wunderground v.1.15,2013-08-18 14:30:00,
2013-08-18 10:35:00,71.8,71.2,30.15,ENE,65,0.0,0.0,98,0.00,,,0.04,Wunderground v.1.15,2013-08-18 14:35:00,
2013-08-18 10:40:00,72.1,71.2,30.15,ESE,118,1.0,1.0,97,0.00,,,0.04,Wunderground v.1.15,2013-08-18 14:40:00,
2013-08-18 10:50:00,72.6,71.4,30.15,SE,129,1.0,1.0,96,0.00,,,0.04,Wunderground v.1.15,2013-08-18 14:50:00,
2013-08-18 10:55:00,72.8,71.6,30.15,ESE,111,1.0,1.0,96,0.00,,,0.04,Wunderground v.1.15,2013-08-18 14:55:00,
2013-08-18 11:00:00,73.0,71.8,30.15,East,80,1.0,2.0,96,0.00,,,0.05,Wunderground v.1.15,2013-08-18 15:00:00,
2013-08-18 11:10:00,73.2,71.1,30.15,East,80,1.0,1.0,93,0.00,,,0.05,Wunderground v.1.15,2013-08-18 15:10:00,
2013-08-18 11:15:00,73.4,70.9,30.15,ENE,78,1.0,1.0,92,0.00,,,0.05,Wunderground v.1.15,2013-08-18 15:15:00,
2013-08-18 11:20:00,73.7,71.2,30.15,North,355,1.0,2.0,92,0.00,,,0.05,Wunderground v.1.15,2013-08-18 15:20:00,
2013-08-18 11:30:00,73.9,71.7,30.15,East,96,1.0,1.0,93,0.00,,,0.05,Wunderground v.1.15,2013-08-18 15:30:00,
2013-08-18 11:35:00,73.7,70.9,30.15,SE,136,1.0,1.0,91,0.00,,,0.05,Wunderground v.1.15,2013-08-18 15:35:00,
2013-08-18 11:40:00,74.1,71.6,30.15,ENE,60,1.0,1.0,92,0.00,,,0.05,Wunderground v.1.15,2013-08-18 15:40:00,
2013-08-18 11:50:00,74.7,71.6,30.15,East,97,1.0,1.0,90,0.00,,,0.05,Wunderground v.1.15,2013-08-18 15:50:00,
2013-08-18 11:55:00,74.9,71.1,30.15,East,83,1.0,1.0,88,0.00,,,0.05,Wunderground v.1.15,2013-08-18 15:55:00,
2013-08-18 12:00:00,75.1,71.0,30.15,North,5,2.0,2.0,87,0.00,,,0.05,Wunderground v.1.15,2013-08-18 16:00:00,
2013-08-18 12:10:00,75.5,71.7,30.15,ENE,57,1.0,1.0,88,0.00,,,0.05,Wunderground v.1.15,2013-08-18 16:10:00,
2013-08-18 12:15:00,76.2,71.7,30.15,NE,46,1.0,1.0,86,0.00,,,0.05,Wunderground v.1.15,2013-08-18 16:15:00,
2013-08-18 12:20:00,76.6,71.7,30.15,NE,46,1.0,1.0,85,0.00,,,0.05,Wunderground v.1.15,2013-08-18 16:20:00,
2013-08-18 12:30:00,76.6,71.7,30.14,NNE,22,2.0,2.0,85,0.00,,,0.05,Wunderground v.1.15,2013-08-18 16:30:00,
2013-08-18 12:35:00,76.9,72.0,30.14,ENE,63,1.0,2.0,85,0.00,,,0.05,Wunderground v.1.15,2013-08-18 16:35:00,
2013-08-18 12:45:00,77.3,71.4,30.14,East,84,2.0,2.0,82,0.00,,,0.05,Wunderground v.1.15,2013-08-18 16:45:00,
2013-08-18 12:50:00,77.1,71.2,30.14,NE,53,2.0,2.0,82,0.00,,,0.05,Wunderground v.1.15,2013-08-18 16:50:00,
2013-08-18 12:55:00,77.0,71.1,30.14,NNE,33,2.0,2.0,82,0.00,,,0.05,Wunderground v.1.15,2013-08-18 16:55:00,
2013-08-18 13:05:00,77.1,71.5,30.13,ENE,65,1.0,2.0,83,0.00,,,0.05,Wunderground v.1.15,2013-08-18 17:05:00,
2013-08-18 13:10:00,77.5,71.9,30.13,NNE,25,1.0,2.0,83,0.00,,,0.05,Wunderground v.1.15,2013-08-18 17:10:00,
2013-08-18 13:15:00,77.9,72.0,30.13,NE,34,2.0,4.0,82,0.00,,,0.05,Wunderground v.1.15,2013-08-18 17:15:00,
2013-08-18 13:25:00,78.1,71.1,30.13,NE,43,2.0,2.0,79,0.00,,,0.05,Wunderground v.1.15,2013-08-18 17:25:00,
2013-08-18 13:30:00,78.1,71.4,30.14,ESE,120,2.0,2.0,80,0.00,,,0.05,Wunderground v.1.15,2013-08-18 17:30:00,
2013-08-18 13:35:00,78.3,71.2,30.13,North,5,1.0,2.0,79,0.00,,,0.05,Wunderground v.1.15,2013-08-18 17:35:00,
2013-08-18 13:45:00,79.2,72.1,30.13,NE,37,1.0,2.0,79,0.00,,,0.05,Wunderground v.1.15,2013-08-18 17:45:00,
2013-08-18 13:50:00,79.5,72.0,30.13,East,92,2.0,2.0,78,0.00,,,0.05,Wunderground v.1.15,2013-08-18 17:50:00,
2013-08-18 13:55:00,79.4,71.6,30.14,WNW,287,2.0,2.0,77,0.00,,,0.05,Wunderground v.1.15,2013-08-18 17:55:00,
2013-08-18 14:05:00,78.9,71.1,30.13,NE,55,2.0,2.0,77,0.00,,,0.05,Wunderground v.1.15,2013-08-18 18:05:00,
2013-08-18 14:10:00,78.8,71.4,30.13,SW,232,2.0,2.0,78,0.00,,,0.05,Wunderground v.1.15,2013-08-18 18:10:00,
2013-08-18 14:15:00,79.2,72.5,30.14,NE,36,2.0,2.0,80,0.00,,,0.05,Wunderground v.1.15,2013-08-18 18:15:00,
2013-08-18 14:25:00,79.5,70.9,30.14,North,5,2.0,3.0,75,0.00,,,0.05,Wunderground v.1.15,2013-08-18 18:25:00,
2013-08-18 14:30:00,79.1,70.9,30.14,ENE,73,2.0,2.0,76,0.00,,,0.05,Wunderground v.1.15,2013-08-18 18:30:00,
2013-08-18 14:40:00,78.9,71.1,30.13,NE,40,2.0,2.0,77,0.00,,,0.05,Wunderground v.1.15,2013-08-18 18:40:00,
2013-08-18 14:45:00,78.9,71.1,30.13,NE,53,2.0,2.0,77,0.00,,,0.05,Wunderground v.1.15,2013-08-18 18:45:00,
2013-08-18 14:50:00,78.9,71.1,30.13,ENE,69,2.0,2.0,77,0.00,,,0.05,Wunderground v.1.15,2013-08-18 18:50:00,
2013-08-18 15:00:00,78.6,70.8,30.13,NE,38,2.0,2.0,77,0.00,,,0.05,Wunderground v.1.15,2013-08-18 19:00:00,
2013-08-18 15:05:00,78.9,70.3,30.13,NE,52,1.0,2.0,75,0.00,,,0.05,Wunderground v.1.15,2013-08-18 19:05:00,
2013-08-18 15:10:00,79.4,71.9,30.13,West,263,1.0,3.0,78,0.00,,,0.05,Wunderground v.1.15,2013-08-18 19:10:00,
2013-08-18 15:20:00,79.9,72.8,30.12,East,93,2.0,3.0,79,0.00,,,0.05,Wunderground v.1.15,2013-08-18 19:20:00,
2013-08-18 15:25:00,79.7,72.2,30.12,SSE,153,1.0,3.0,78,0.00,,,0.05,Wunderground v.1.15,2013-08-18 19:25:00,
2013-08-18 15:30:00,79.6,71.8,30.12,NE,44,1.0,2.0,77,0.00,,,0.05,Wunderground v.1.15,2013-08-18 19:30:00,
2013-08-18 15:40:00,79.5,70.9,30.11,ENE,60,1.0,1.0,75,0.00,,,0.05,Wunderground v.1.15,2013-08-18 19:40:00,
2013-08-18 15:45:00,79.8,71.9,30.11,ENE,78,1.0,2.0,77,0.00,,,0.05,Wunderground v.1.15,2013-08-18 19:45:00,
2013-08-18 15:50:00,79.5,71.3,30.11,NNW,342,1.0,2.0,76,0.00,,,0.05,Wunderground v.1.15,2013-08-18 19:50:00,
2013-08-18 16:00:00,78.6,70.8,30.12,NE,34,1.0,2.0,77,0.00,,,0.05,Wunderground v.1.15,2013-08-18 20:00:00,
2013-08-18 16:05:00,78.2,70.4,30.11,NW,324,1.0,2.0,77,0.00,,,0.05,Wunderground v.1.15,2013-08-18 20:05:00,
2013-08-18 16:10:00,78.3,70.9,30.11,NNW,338,1.0,1.0,78,0.00,,,0.05,Wunderground v.1.15,2013-08-18 20:10:00,
2013-08-18 16:20:00,78.8,70.6,30.11,NE,41,1.0,1.0,76,0.00,,,0.05,Wunderground v.1.15,2013-08-18 20:20:00,
2013-08-18 16:25:00,78.4,71.0,30.11,NNW,330,2.0,2.0,78,0.00,,,0.05,Wunderground v.1.15,2013-08-18 20:25:00,
2013-08-18 16:35:00,78.0,70.6,30.11,NE,46,1.0,2.0,78,0.00,,,0.05,Wunderground v.1.15,2013-08-18 20:35:00,
2013-08-18 16:40:00,77.9,71.2,30.11,North,355,2.0,2.0,80,0.00,,,0.05,Wunderground v.1.15,2013-08-18 20:40:00,
2013-08-18 16:45:00,78.3,71.2,30.11,NE,36,2.0,2.0,79,0.00,,,0.05,Wunderground v.1.15,2013-08-18 20:45:00,
2013-08-18 16:55:00,78.3,71.2,30.11,NE,35,1.0,1.0,79,0.00,,,0.05,Wunderground v.1.15,2013-08-18 20:55:00,
2013-08-18 17:00:00,77.8,70.8,30.11,North,351,1.0,1.0,79,0.00,,,0.05,Wunderground v.1.15,2013-08-18 21:00:00,
2013-08-18 17:10:00,77.4,70.4,30.11,NNE,33,1.0,1.0,79,0.00,,,0.05,Wunderground v.1.15,2013-08-18 21:10:00,
2013-08-18 17:15:00,77.5,70.8,30.11,North,5,1.0,1.0,80,0.00,,,0.05,Wunderground v.1.15,2013-08-18 21:15:00,
2013-08-18 17:20:00,78.2,70.8,30.11,North,355,1.0,1.0,78,0.00,,,0.05,Wunderground v.1.15,2013-08-18 21:20:00,
2013-08-18 17:30:00,78.5,71.1,30.11,NNE,31,1.0,1.0,78,0.00,,,0.05,Wunderground v.1.15,2013-08-18 21:30:00,
2013-08-18 17:35:00,78.3,70.5,30.11,NW,322,1.0,1.0,77,0.00,,,0.05,Wunderground v.1.15,2013-08-18 21:35:00,
2013-08-18 17:40:00,77.9,70.9,30.11,NE,55,1.0,3.0,79,0.00,,,0.05,Wunderground v.1.15,2013-08-18 21:40:00,
2013-08-18 17:50:00,77.2,70.5,30.11,NE,42,1.0,1.0,80,0.00,,,0.05,Wunderground v.1.15,2013-08-18 21:50:00,
2013-08-18 17:55:00,76.9,70.3,30.11,ENE,57,1.0,2.0,80,0.00,,,0.05,Wunderground v.1.15,2013-08-18 21:55:00,
2013-08-18 18:00:00,76.6,70.3,30.11,NE,51,1.0,1.0,81,0.00,,,0.05,Wunderground v.1.15,2013-08-18 22:00:00,
2013-08-18 18:10:00,76.2,69.9,30.11,NNW,338,1.0,1.0,81,0.00,,,0.05,Wunderground v.1.15,2013-08-18 22:10:00,
2013-08-18 18:15:00,76.0,69.7,30.11,NNW,343,1.0,4.0,81,0.00,,,0.05,Wunderground v.1.15,2013-08-18 22:15:00,
2013-08-18 18:25:00,76.0,70.1,30.11,NNE,17,1.0,2.0,82,0.00,,,0.05,Wunderground v.1.15,2013-08-18 22:25:00,
2013-08-18 18:30:00,75.9,69.6,30.11,North,5,1.0,1.0,81,0.00,,,0.05,Wunderground v.1.15,2013-08-18 22:30:00,
2013-08-18 18:35:00,75.7,69.8,30.11,NE,34,1.0,1.0,82,0.00,,,0.05,Wunderground v.1.15,2013-08-18 22:35:00,
2013-08-18 18:45:00,75.3,69.4,30.12,NNW,346,1.0,2.0,82,0.00,,,0.05,Wunderground v.1.15,2013-08-18 22:45:00,
2013-08-18 18:50:00,75.1,69.2,30.11,NNW,337,1.0,1.0,82,0.00,,,0.05,Wunderground v.1.15,2013-08-18 22:50:00,
2013-08-18 18:55:00,75.1,69.6,30.11,NNE,31,1.0,2.0,83,0.00,,,0.05,Wunderground v.1.15,2013-08-18 22:55:00,
2013-08-18 19:05:00,74.7,69.5,30.11,NNW,335,1.0,1.0,84,0.00,,,0.05,Wunderground v.1.15,2013-08-18 23:05:00,
2013-08-18 19:15:00,74.4,69.2,30.11,NNW,335,0.0,0.0,84,0.00,,,0.05,Wunderground v.1.15,2013-08-18 23:15:00,
2013-08-18 19:20:00,74.1,69.0,30.11,NNW,335,0.0,0.0,84,0.00,,,0.05,Wunderground v.1.15,2013-08-18 23:20:00,
2013-08-18 19:30:00,73.7,69.6,30.11,NNW,335,0.0,0.0,87,0.00,,,0.05,Wunderground v.1.15,2013-08-18 23:30:00,
2013-08-18 19:35:00,73.4,69.6,30.12,NNW,335,0.0,0.0,88,0.00,,,0.05,Wunderground v.1.15,2013-08-18 23:35:00,
2013-08-18 19:40:00,73.1,69.7,30.12,NNW,335,0.0,0.0,89,0.00,,,0.05,Wunderground v.1.15,2013-08-18 23:40:00,
2013-08-18 19:50:00,72.5,68.7,30.12,NNW,335,0.0,0.0,88,0.00,,,0.05,Wunderground v.1.15,2013-08-18 23:50:00,
2013-08-18 19:55:00,72.2,68.8,30.12,NNW,335,0.0,0.0,89,0.00,,,0.05,Wunderground v.1.15,2013-08-18 23:55:00,
2013-08-18 20:00:00,72.0,68.6,30.12,NNW,335,0.0,0.0,89,0.00,,,0.05,Wunderground v.1.15,2013-08-19 00:00:00,
2013-08-18 20:10:00,71.6,68.2,30.13,NNW,335,0.0,0.0,89,0.00,,,0.05,Wunderground v.1.15,2013-08-19 00:10:00,
2013-08-18 20:15:00,71.4,68.3,30.13,NNW,335,0.0,1.0,90,0.00,,,0.05,Wunderground v.1.15,2013-08-19 00:15:00,
2013-08-18 20:20:00,71.2,68.1,30.13,NNW,335,0.0,0.0,90,0.00,,,0.05,Wunderground v.1.15,2013-08-19 00:20:00,
2013-08-18 20:30:00,70.7,67.9,30.13,NNW,335,0.0,1.0,91,0.00,,,0.05,Wunderground v.1.15,2013-08-19 00:30:00,
2013-08-18 20:35:00,70.6,67.8,30.13,NNW,335,0.0,1.0,91,0.00,,,0.05,Wunderground v.1.15,2013-08-19 00:35:00,
2013-08-18 20:40:00,70.4,68.0,30.13,NNW,335,0.0,0.0,92,0.00,,,0.05,Wunderground v.1.15,2013-08-19 00:40:00,
2013-08-18 20:50:00,70.2,67.8,30.13,NNW,335,0.0,0.0,92,0.00,,,0.05,Wunderground v.1.15,2013-08-19 00:50:00,
2013-08-18 20:55:00,70.0,67.9,30.14,North,5,0.0,0.0,93,0.00,,,0.05,Wunderground v.1.15,2013-08-19 00:55:00,
2013-08-18 21:05:00,69.7,67.6,30.14,North,5,0.0,2.0,93,0.00,,,0.05,Wunderground v.1.15,2013-08-19 01:05:00,
2013-08-18 21:10:00,69.6,67.5,30.14,North,5,0.0,0.0,93,0.00,,,0.05,Wunderground v.1.15,2013-08-19 01:10:00,
2013-08-18 21:15:00,69.5,67.7,30.14,North,5,0.0,0.0,94,0.00,,,0.05,Wunderground v.1.15,2013-08-19 01:15:00,
2013-08-18 21:25:00,69.2,67.4,30.15,North,5,0.0,0.0,94,0.00,,,0.05,Wunderground v.1.15,2013-08-19 01:25:00,
2013-08-18 21:30:00,69.1,67.3,30.15,North,5,0.0,0.0,94,0.00,,,0.05,Wunderground v.1.15,2013-08-19 01:30:00,
2013-08-18 21:40:00,68.9,67.1,30.15,North,5,0.0,0.0,94,0.00,,,0.05,Wunderground v.1.15,2013-08-19 01:40:00,
2013-08-18 21:45:00,68.8,67.3,30.15,North,5,0.0,0.0,95,0.00,,,0.05,Wunderground v.1.15,2013-08-19 01:45:00,
2013-08-18 21:50:00,68.7,67.2,30.15,North,5,0.0,0.0,95,0.00,,,0.05,Wunderground v.1.15,2013-08-19 01:50:00,
2013-08-18 21:55:00,68.6,67.1,30.16,North,5,0.0,0.0,95,0.00,,,0.05,Wunderground v.1.15,2013-08-19 01:55:00,
2013-08-18 22:05:00,68.5,67.0,30.16,North,5,0.0,1.0,95,0.00,,,0.05,Wunderground v.1.15,2013-08-19 02:05:00,
2013-08-18 22:10:00,68.4,67.2,30.16,North,5,0.0,0.0,96,0.00,,,0.05,Wunderground v.1.15,2013-08-19 02:10:00,
2013-08-18 22:15:00,68.3,67.1,30.16,North,5,0.0,0.0,96,0.00,,,0.05,Wunderground v.1.15,2013-08-19 02:15:00,
2013-08-18 22:25:00,68.2,67.0,30.16,North,5,0.0,0.0,96,0.00,,,0.05,Wunderground v.1.15,2013-08-19 02:25:00,
2013-08-18 22:30:00,68.1,66.9,30.16,North,5,0.0,0.0,96,0.00,,,0.05,Wunderground v.1.15,2013-08-19 02:30:00,
2013-08-18 22:40:00,67.9,66.7,30.16,North,5,0.0,0.0,96,0.00,,,0.05,Wunderground v.1.15,2013-08-19 02:40:00,
2013-08-18 22:45:00,67.9,66.7,30.16,North,5,0.0,0.0,96,0.00,,,0.05,Wunderground v.1.15,2013-08-19 02:45:00,
2013-08-18 22:50:00,67.9,66.7,30.16,North,5,0.0,0.0,96,0.00,,,0.05,Wunderground v.1.15,2013-08-19 02:50:00,
2013-08-18 23:00:00,67.8,66.9,30.16,North,5,0.0,0.0,97,0.00,,,0.05,Wunderground v.1.15,2013-08-19 03:00:00,
2013-08-18 23:05:00,67.8,66.9,30.16,North,5,0.0,0.0,97,0.00,,,0.05,Wunderground v.1.15,2013-08-19 03:05:00,
2013-08-18 23:10:00,67.7,66.8,30.17,North,5,0.0,0.0,97,0.00,,,0.05,Wunderground v.1.15,2013-08-19 03:10:00,
2013-08-18 23:15:00,67.7,66.8,30.17,North,5,0.0,0.0,97,0.00,,,0.05,Wunderground v.1.15,2013-08-19 03:15:00,
2013-08-18 23:25:00,67.6,66.7,30.17,North,5,0.0,0.0,97,0.00,,,0.05,Wunderground v.1.15,2013-08-19 03:25:00,
2013-08-18 23:30:00,67.6,66.7,30.17,North,5,0.0,0.0,97,0.00,,,0.05,Wunderground v.1.15,2013-08-19 03:30:00,
2013-08-18 23:35:00,67.5,66.6,30.17,North,5,0.0,0.0,97,0.00,,,0.05,Wunderground v.1.15,2013-08-19 03:35:00,
2013-08-18 23:45:00,67.4,66.5,30.17,North,5,0.0,0.0,97,0.00,,,0.05,Wunderground v.1.15,2013-08-19 03:45:00,
2013-08-18 23:50:00,67.4,66.5,30.17,North,5,0.0,0.0,97,0.00,,,0.05,Wunderground v.1.15,2013-08-19 03:50:00,